createdAt,value
2022-08-12T00:01:18.948Z,102071.88
2022-08-12T00:04:32.422Z,102073.59
2022-08-12T00:07:19.055Z,102066.78
2022-08-12T00:10:04.270Z,102074.22
2022-08-12T00:12:49.891Z,102073.19
2022-08-12T00:15:36.926Z,102076.25
2022-08-12T00:18:30.094Z,102075.75
2022-08-12T00:21:15.214Z,102077.16
2022-08-12T00:27:49.910Z,102068.47
2022-08-12T00:30:37.144Z,102069.59
2022-08-12T00:33:28.902Z,102071.91
2022-08-12T00:37:03.943Z,102063.13
2022-08-12T00:40:14.154Z,102068.72
2022-08-12T00:42:51.436Z,102059.16
2022-08-12T00:45:18.856Z,102080.13
2022-08-12T00:48:11.202Z,102076.03
2022-08-12T00:50:40.772Z,102082.13
2022-08-12T00:53:21.009Z,102078.97
2022-08-12T00:55:47.942Z,102072.72
2022-08-12T00:58:17.274Z,102068.75
2022-08-12T01:00:44.940Z,102065.47
2022-08-12T01:03:15.663Z,102061.69
2022-08-12T01:06:03.708Z,102073.56
2022-08-12T01:12:21.461Z,102074.03
2022-08-12T01:14:53.341Z,102073.53
2022-08-12T01:17:44.403Z,102065.03
2022-08-12T01:20:20.110Z,102068.09
2022-08-12T01:23:07.082Z,102070.84
2022-08-12T01:25:55.572Z,102072.56
2022-08-12T01:28:27.668Z,102065.44
2022-08-12T01:30:57.016Z,102069.88
2022-08-12T01:33:34.941Z,102073.22
2022-08-12T01:36:08.728Z,102075.97
2022-08-12T01:38:49.739Z,102071.06
2022-08-12T01:41:18.148Z,102079.06
2022-08-12T01:43:45.625Z,102075.28
2022-08-12T01:46:48.066Z,102078.31
2022-08-12T01:49:50.481Z,102068.81
2022-08-12T01:52:48.762Z,102070.50
2022-08-12T01:55:21.672Z,102062.56
2022-08-12T01:58:13.797Z,102063.72
2022-08-12T02:01:03.846Z,102068.19
2022-08-12T02:04:13.559Z,102059.19
2022-08-12T02:07:19.429Z,102056.22
2022-08-12T02:10:50.843Z,102057.94
2022-08-12T02:13:43.702Z,102051.91
2022-08-12T02:16:53.884Z,102059.09
2022-08-12T02:19:49.520Z,102058.06
2022-08-12T02:22:39.328Z,102059.22
2022-08-12T02:25:23.061Z,102054.91
2022-08-12T02:27:56.173Z,102057.72
2022-08-12T02:30:26.421Z,102041.81
2022-08-12T02:33:11.788Z,102046.25
2022-08-12T02:35:39.773Z,102042.97
2022-08-12T02:38:26.362Z,102040.28
2022-08-12T02:41:04.121Z,102040.03
2022-08-12T02:43:59.069Z,102033.75
2022-08-12T02:46:32.309Z,102034.31
2022-08-12T02:49:56.559Z,102031.59
2022-08-12T02:52:24.214Z,102039.88
2022-08-12T02:55:33.935Z,102029.50
2022-08-12T02:58:12.428Z,102033.34
2022-08-12T03:00:42.299Z,102029.50
2022-08-12T03:03:13.192Z,102027.06
2022-08-12T03:05:59.722Z,102032.81
2022-08-12T03:08:47.040Z,102030.66
2022-08-12T03:11:37.740Z,102028.78
2022-08-12T03:14:14.040Z,102031.28
2022-08-12T03:17:13.646Z,102015.94
2022-08-12T03:20:10.247Z,102029.66
2022-08-12T03:22:40.759Z,102026.91
2022-08-12T03:25:31.726Z,102034.91
2022-08-12T03:28:10.119Z,102030.28
2022-08-12T03:31:19.569Z,102030.84
2022-08-12T03:34:00.617Z,102032.25
2022-08-12T03:36:39.084Z,102034.47
2022-08-12T03:39:18.970Z,102030.66
2022-08-12T03:41:59.298Z,102032.88
2022-08-12T03:48:39.460Z,102030.47
2022-08-12T03:51:25.135Z,102033.78
2022-08-12T03:54:11.741Z,102032.41
2022-08-12T03:56:57.995Z,102034.94
2022-08-12T03:59:43.040Z,102026.75
2022-08-12T04:02:16.850Z,102016.34
2022-08-12T04:04:45.461Z,102024.03
2022-08-12T04:07:34.159Z,102015.28
2022-08-12T04:10:01.488Z,102006.50
2022-08-12T04:12:46.531Z,102008.69
2022-08-12T04:15:14.720Z,102021.88
2022-08-12T04:18:06.876Z,102019.16
2022-08-12T04:20:55.021Z,102017.53
2022-08-12T04:23:59.782Z,102018.09
2022-08-12T04:26:27.377Z,102024.16
2022-08-12T04:28:56.609Z,102023.06
2022-08-12T04:31:56.034Z,102028.53
2022-08-12T04:34:59.712Z,102033.47
2022-08-12T04:37:59.335Z,102026.94
2022-08-12T04:40:30.110Z,102023.09
2022-08-12T04:43:03.691Z,102019.50
2022-08-12T04:45:43.722Z,102025.28
2022-08-12T04:48:17.275Z,102025.84
2022-08-12T04:50:53.437Z,102023.34
2022-08-12T04:53:19.992Z,102030.75
2022-08-12T04:55:47.875Z,102024.16
2022-08-12T04:58:34.263Z,102031.00
2022-08-12T05:01:01.204Z,102032.41
2022-08-12T05:03:47.123Z,102031.00
2022-08-12T05:06:20.806Z,102034.53
2022-08-12T05:08:55.907Z,102033.41
2022-08-12T05:11:27.291Z,102029.00
2022-08-12T05:14:07.208Z,102020.72
2022-08-12T05:16:50.802Z,102020.38
2022-08-12T05:19:22.602Z,102018.44
2022-08-12T05:21:54.406Z,102010.16
2022-08-12T05:24:20.828Z,102016.72
2022-08-12T05:26:48.272Z,102026.50
2022-08-12T05:30:07.126Z,102026.75
2022-08-12T05:32:39.026Z,102019.81
2022-08-12T05:35:09.014Z,102023.09
2022-08-12T05:37:35.684Z,102028.53
2022-08-12T05:40:10.060Z,102028.78
2022-08-12T05:42:37.858Z,102028.44
2022-08-12T05:45:11.469Z,102028.91
2022-08-12T05:47:52.973Z,102024.78
2022-08-12T05:50:20.644Z,102018.41
2022-08-12T05:53:03.994Z,102028.47
2022-08-12T05:55:31.643Z,102039.13
2022-08-12T05:57:58.353Z,102030.84
2022-08-12T06:00:25.973Z,102039.81
2022-08-12T06:03:57.920Z,102032.88
2022-08-12T06:06:53.431Z,102041.00
2022-08-12T06:09:23.228Z,102042.56
2022-08-12T06:12:05.186Z,102036.38
2022-08-12T06:14:35.142Z,102039.06
2022-08-12T06:17:04.067Z,102040.13
2022-08-12T06:20:28.138Z,102047.25
2022-08-12T06:22:35.433Z,102046.06
2022-08-12T06:25:02.945Z,102053.13
2022-08-12T06:27:29.326Z,102049.25
2022-08-12T06:30:27.672Z,102041.25
2022-08-12T06:33:11.661Z,102040.88
2022-08-12T06:35:50.192Z,102035.63
2022-08-12T06:38:27.619Z,102041.59
2022-08-12T06:41:18.258Z,102037.34
2022-08-12T06:44:07.016Z,102040.81
2022-08-12T06:46:33.226Z,102041.56
2022-08-12T06:49:01.667Z,102042.59
2022-08-12T06:51:31.024Z,102036.19
2022-08-12T06:53:59.028Z,102033.34
2022-08-12T06:56:46.076Z,102039.28
2022-08-12T06:59:14.100Z,102028.41
2022-08-12T07:01:40.749Z,102027.31
2022-08-12T07:04:35.831Z,102024.16
2022-08-12T07:07:05.450Z,102023.44
2022-08-12T07:10:04.156Z,102017.53
2022-08-12T07:12:22.085Z,102018.97
2022-08-12T07:15:02.458Z,102018.03
2022-08-12T07:17:37.563Z,102013.72
2022-08-12T07:20:09.878Z,102004.47
2022-08-12T07:22:37.511Z,102006.78
2022-08-12T07:25:22.585Z,102012.09
2022-08-12T07:27:53.820Z,102012.50
2022-08-12T07:30:23.256Z,102009.00
2022-08-12T07:33:34.453Z,102014.31
2022-08-12T07:36:02.362Z,102008.56
2022-08-12T07:38:36.224Z,102015.47
2022-08-12T07:41:15.604Z,102024.66
2022-08-12T07:44:03.877Z,102020.53
2022-08-12T07:47:22.708Z,102019.28
2022-08-12T07:50:09.101Z,102026.06
2022-08-12T07:52:39.632Z,102026.94
2022-08-12T07:55:19.321Z,102037.22
2022-08-12T07:58:04.140Z,102030.44
2022-08-12T08:00:34.195Z,102036.00
2022-08-12T08:03:08.655Z,102034.44
2022-08-12T08:05:39.841Z,102037.59
2022-08-12T08:08:17.208Z,102036.28
2022-08-12T08:10:44.629Z,102026.94
2022-08-12T08:13:12.513Z,102026.31
2022-08-12T08:16:02.313Z,102028.31
2022-08-12T08:18:37.393Z,102030.47
2022-08-12T08:21:08.948Z,102031.13
2022-08-12T08:23:56.422Z,102028.56
2022-08-12T08:26:26.615Z,102034.97
2022-08-12T08:28:53.058Z,102038.56
2022-08-12T08:31:19.564Z,102027.84
2022-08-12T08:34:04.249Z,102028.31
2022-08-12T08:36:32.337Z,102029.78
2022-08-12T08:38:59.030Z,102037.75
2022-08-12T08:42:14.033Z,102035.16
2022-08-12T08:44:39.423Z,102031.91
2022-08-12T08:47:06.972Z,102032.72
2022-08-12T08:49:37.117Z,102030.75
2022-08-12T08:52:09.200Z,102035.28
2022-08-12T08:54:37.561Z,102025.78
2022-08-12T08:57:05.684Z,102027.53
2022-08-12T08:59:32.317Z,102034.34
2022-08-12T09:01:58.940Z,102026.47
2022-08-12T09:05:14.487Z,102027.25
2022-08-12T09:07:17.948Z,102029.59
2022-08-12T09:10:03.312Z,102011.09
2022-08-12T09:12:54.369Z,102025.72
2022-08-12T09:15:35.808Z,102010.28
2022-08-12T09:20:52.084Z,102023.84
2022-08-12T09:26:08.104Z,102012.72
2022-08-12T09:28:37.112Z,102016.31
2022-08-12T09:32:03.474Z,102021.44
2022-08-12T09:34:29.836Z,102009.25
2022-08-12T09:36:58.555Z,102010.44
2022-08-12T09:40:06.323Z,102004.91
2022-08-12T09:42:38.803Z,102001.53
2022-08-12T09:46:11.391Z,102006.41
2022-08-12T09:48:20.084Z,101995.84
2022-08-12T09:50:51.864Z,101990.66
2022-08-12T09:53:29.377Z,101996.56
2022-08-12T09:56:58.901Z,101991.69
2022-08-12T09:59:00.145Z,101992.16
2022-08-12T10:01:35.128Z,101992.38
2022-08-12T10:04:19.047Z,101981.66
2022-08-12T10:06:54.703Z,101979.75
2022-08-12T10:09:28.599Z,101974.03
2022-08-12T10:12:41.868Z,101976.47
2022-08-12T10:15:15.333Z,101966.63
2022-08-12T10:18:07.296Z,101968.44
2022-08-12T10:20:34.102Z,101966.22
2022-08-12T10:23:01.590Z,101968.84
2022-08-12T10:26:18.478Z,101957.91
2022-08-12T10:29:02.606Z,101952.84
2022-08-12T10:32:19.594Z,101944.25
2022-08-12T10:34:23.756Z,101942.53
2022-08-12T10:36:58.612Z,101939.59
2022-08-12T10:40:05.629Z,101936.66
2022-08-12T10:42:38.369Z,101941.56
2022-08-12T10:45:07.358Z,101928.25
2022-08-12T10:48:07.732Z,101929.25
2022-08-12T10:50:33.519Z,101917.81
2022-08-12T10:53:10.957Z,101914.47
2022-08-12T10:55:45.801Z,101913.03
2022-08-12T10:58:28.007Z,101917.59
2022-08-12T11:01:49.420Z,101908.66
2022-08-12T11:04:25.216Z,101908.72
2022-08-12T11:07:07.719Z,101901.59
2022-08-12T11:09:55.855Z,101902.13
2022-08-12T11:12:55.347Z,101898.66
2022-08-12T11:15:14.796Z,101890.88
2022-08-12T11:17:54.039Z,101893.38
2022-08-12T11:20:30.546Z,101887.94
2022-08-12T11:22:59.982Z,101877.06
2022-08-12T11:25:56.798Z,101878.25
2022-08-12T11:28:34.562Z,101876.34
2022-08-12T11:31:04.688Z,101871.34
2022-08-12T11:34:05.476Z,101875.44
2022-08-12T11:36:21.777Z,101882.38
2022-08-12T11:38:50.357Z,101880.94
2022-08-12T11:41:28.113Z,101877.78
2022-08-12T11:43:59.080Z,101875.00
2022-08-12T11:46:25.921Z,101869.41
2022-08-12T11:48:52.872Z,101863.38
2022-08-12T11:51:20.774Z,101866.22
2022-08-12T11:53:56.456Z,101857.94
2022-08-12T11:56:38.748Z,101857.19
2022-08-12T12:02:01.464Z,101843.03
2022-08-12T12:04:31.391Z,101848.38
2022-08-12T12:07:07.447Z,101844.47
2022-08-12T12:09:52.702Z,101839.69
2022-08-12T12:12:21.368Z,101842.91
2022-08-12T12:14:54.765Z,101838.94
2022-08-12T12:17:25.993Z,101850.13
2022-08-12T12:19:54.065Z,101850.97
2022-08-12T12:22:23.603Z,101847.91
2022-08-12T12:24:58.353Z,101843.66
2022-08-12T12:27:47.240Z,101840.13
2022-08-12T12:30:19.725Z,101841.34
2022-08-12T12:32:55.806Z,101831.44
2022-08-12T12:36:06.459Z,101829.06
2022-08-12T12:38:12.016Z,101822.72
2022-08-12T12:40:41.510Z,101825.94
2022-08-12T12:43:11.237Z,101822.81
2022-08-12T12:45:39.396Z,101822.41
2022-08-12T12:48:12.069Z,101829.31
2022-08-12T12:51:14.305Z,101822.25
2022-08-12T12:54:07.771Z,101821.06
2022-08-12T12:56:40.369Z,101807.09
2022-08-12T12:59:55.229Z,101810.69
2022-08-12T13:01:56.029Z,101799.91
2022-08-12T13:04:24.641Z,101799.13
2022-08-12T13:06:52.245Z,101805.56
2022-08-12T13:09:22.166Z,101801.69
2022-08-12T13:11:53.122Z,101792.97
2022-08-12T13:14:28.173Z,101789.81
2022-08-12T13:17:01.335Z,101794.56
2022-08-12T13:19:37.437Z,101784.19
2022-08-12T13:22:19.920Z,101794.19
2022-08-12T13:24:55.557Z,101788.22
2022-08-12T13:27:36.305Z,101786.66
2022-08-12T13:30:12.474Z,101789.09
2022-08-12T13:32:56.901Z,101778.00
2022-08-12T13:35:33.653Z,101774.41
2022-08-12T13:38:13.151Z,101778.88
2022-08-12T13:40:40.459Z,101780.50
2022-08-12T13:43:07.086Z,101784.56
2022-08-12T13:45:34.612Z,101783.78
2022-08-12T13:48:03.512Z,101781.00
2022-08-12T13:50:38.140Z,101781.88
2022-08-12T13:53:24.240Z,101783.91
2022-08-12T13:55:59.710Z,101774.72
2022-08-12T13:58:30.119Z,101767.88
2022-08-12T14:00:58.126Z,101760.66
2022-08-12T14:03:28.393Z,101760.66
2022-08-12T14:06:15.606Z,101759.03
2022-08-12T14:08:42.860Z,101743.88
2022-08-12T14:11:09.481Z,101749.47
2022-08-12T14:14:03.305Z,101745.44
2022-08-12T14:16:48.598Z,101743.41
2022-08-12T14:19:21.951Z,101738.25
2022-08-12T14:22:01.112Z,101740.63
2022-08-12T14:24:35.137Z,101731.78
2022-08-12T14:27:02.779Z,101734.19
2022-08-12T14:29:56.103Z,101729.78
2022-08-12T14:32:17.996Z,101732.56
2022-08-12T14:34:47.119Z,101734.59
2022-08-12T14:37:57.323Z,101730.97
2022-08-12T14:40:00.521Z,101732.16
2022-08-12T14:42:27.923Z,101734.94
2022-08-12T14:45:01.199Z,101733.69
2022-08-12T14:47:29.271Z,101734.41
2022-08-12T14:50:41.211Z,101725.16
2022-08-12T14:54:49.891Z,101725.94
2022-08-12T14:58:37.659Z,101728.31
2022-08-12T15:01:37.377Z,101722.72
2022-08-12T15:04:04.008Z,101728.31
2022-08-12T15:06:44.120Z,101718.31
2022-08-12T15:09:18.290Z,101715.94
2022-08-12T15:12:03.224Z,101711.09
2022-08-12T15:14:42.906Z,101713.09
2022-08-12T15:17:12.225Z,101704.28
2022-08-12T15:20:30.959Z,101700.22
2022-08-12T15:22:56.584Z,101701.00
2022-08-12T15:25:24.632Z,101695.41
2022-08-12T15:28:04.005Z,101695.41
2022-08-12T15:30:33.791Z,101698.97
2022-08-12T15:33:00.394Z,101698.13
2022-08-12T15:35:50.205Z,101691.66
2022-08-12T15:38:25.085Z,101692.78
2022-08-12T15:41:01.031Z,101692.00
2022-08-12T15:44:15.601Z,101698.34
2022-08-12T15:46:16.620Z,101695.91
2022-08-12T15:48:47.744Z,101697.50
2022-08-12T15:51:59.012Z,101698.28
2022-08-12T15:54:33.612Z,101688.22
2022-08-12T15:57:05.437Z,101694.22
2022-08-12T15:59:32.701Z,101698.38
2022-08-12T16:02:19.285Z,101687.34
2022-08-12T16:04:50.281Z,101690.53
2022-08-12T16:07:30.270Z,101695.16
2022-08-12T16:10:08.423Z,101689.88
2022-08-12T16:12:43.197Z,101683.78
2022-08-12T16:15:13.635Z,101678.09
2022-08-12T16:18:18.991Z,101681.97
2022-08-12T16:20:34.019Z,101675.56
2022-08-12T16:23:04.123Z,101668.38
2022-08-12T16:26:00.185Z,101676.25
2022-08-12T16:28:17.559Z,101668.16
2022-08-12T16:30:44.480Z,101669.69
2022-08-12T16:33:18.247Z,101669.16
2022-08-12T16:35:47.956Z,101665.53
2022-08-12T16:38:28.277Z,101657.94
2022-08-12T16:40:55.424Z,101663.09
2022-08-12T16:43:31.852Z,101662.22
2022-08-12T16:46:07.837Z,101660.63
2022-08-12T16:48:48.855Z,101668.47
2022-08-12T16:51:16.888Z,101663.22
2022-08-12T16:53:54.529Z,101656.34
2022-08-12T16:56:28.832Z,101656.22
2022-08-12T16:58:57.345Z,101648.94
2022-08-12T17:01:27.309Z,101647.28
2022-08-12T17:04:10.822Z,101655.22
2022-08-12T17:06:44.344Z,101654.47
2022-08-12T17:09:17.028Z,101655.22
2022-08-12T17:11:44.706Z,101656.72
2022-08-12T17:14:16.367Z,101667.78
2022-08-12T17:16:43.378Z,101656.19
2022-08-12T17:19:15.659Z,101658.84
2022-08-12T17:22:01.289Z,101659.56
2022-08-12T17:24:39.997Z,101653.78
2022-08-12T17:27:16.027Z,101661.72
2022-08-12T17:30:02.297Z,101655.28
2022-08-12T17:32:35.835Z,101656.28
2022-08-12T17:35:22.756Z,101655.44
2022-08-12T17:38:11.795Z,101656.94
2022-08-12T17:40:38.503Z,101649.31
2022-08-12T17:43:54.832Z,101652.41
2022-08-12T17:46:02.240Z,101648.31
2022-08-12T17:48:34.822Z,101653.00
2022-08-12T17:51:15.756Z,101645.00
2022-08-12T17:54:11.444Z,101651.31
2022-08-12T17:56:37.350Z,101640.09
2022-08-12T17:59:04.292Z,101651.09
2022-08-12T18:01:35.837Z,101656.53
2022-08-12T18:04:21.189Z,101659.63
2022-08-12T18:06:52.184Z,101663.34
2022-08-12T18:09:21.093Z,101664.00
2022-08-12T18:12:08.707Z,101665.44
2022-08-12T18:15:26.183Z,101666.03
2022-08-12T18:18:01.416Z,101663.81
2022-08-12T18:20:36.386Z,101664.75
2022-08-12T18:23:04.608Z,101667.75
2022-08-12T18:26:14.139Z,101669.94
2022-08-12T18:28:44.741Z,101671.41
2022-08-12T18:31:18.222Z,101681.56
2022-08-12T18:33:46.307Z,101678.44
2022-08-12T18:36:14.236Z,101685.34
2022-08-12T18:38:55.845Z,101683.91
2022-08-12T18:41:34.209Z,101688.81
2022-08-12T18:44:11.412Z,101689.69
2022-08-12T18:46:56.024Z,101692.16
2022-08-12T18:49:39.672Z,101691.53
2022-08-12T18:52:08.698Z,101690.88
2022-08-12T18:54:54.105Z,101686.16
2022-08-12T18:58:07.076Z,101700.22
2022-08-12T19:00:22.308Z,101691.56
2022-08-12T19:02:58.093Z,101692.84
2022-08-12T19:05:54.381Z,101692.16
2022-08-12T19:08:27.872Z,101694.28
2022-08-12T19:10:54.822Z,101697.97
2022-08-12T19:13:39.992Z,101704.13
2022-08-12T19:16:10.732Z,101699.84
2022-08-12T19:18:45.002Z,101702.44
2022-08-12T19:21:16.711Z,101699.41
2022-08-12T19:24:11.959Z,101708.66
2022-08-12T19:26:42.406Z,101710.72
2022-08-12T19:29:39.632Z,101712.09
2022-08-12T19:32:13.972Z,101719.00
2022-08-12T19:38:03.432Z,101711.34
2022-08-12T19:40:32.442Z,101712.25
